Time;durP1;ratioP1;P1;durP2;ratioP2;P2;SDS_P1;SDS_P2;PMS_P1;PMS_P2;Temp;Humidity;BMP_temperature;BMP_pressure;BME280_temperature;BME280_humidity;BME280_pressure;Samples;Min_cycle;Max_cycle;Signal;HPM_P1;HPM_P2
2023/12/22 00:00:47;;;;;;;29.23;7.90;;;10.20;99.90;;;10.28;77.08;100235.56;4900784;29;19931;-68
2023/12/22 00:03:16;;;;;;;36.45;7.70;;;10.20;99.90;;;10.34;76.15;100246.03;4900569;29;20081;-69
2023/12/22 00:05:44;;;;;;;29.20;8.10;;;10.20;99.90;;;10.38;75.57;100259.19;4900478;29;20060;-69
2023/12/22 00:08:13;;;;;;;38.55;7.75;;;10.20;99.90;;;10.23;75.52;100232.09;4900610;29;20047;-67
2023/12/22 00:10:41;;;;;;;22.38;6.90;;;10.10;99.90;;;10.37;75.73;100240.72;4900277;29;20052;-68
2023/12/22 00:13:09;;;;;;;24.13;6.35;;;10.20;99.90;;;10.31;75.99;100212.63;4900590;29;20076;-70
2023/12/22 00:15:39;;;;;;;27.83;7.30;;;10.20;99.90;;;10.34;77.13;100232.81;4900368;29;20083;-69
2023/12/22 00:18:08;;;;;;;29.20;6.87;;;10.20;99.90;;;10.47;78.05;100243.19;4930851;29;20049;-69
2023/12/22 00:20:37;;;;;;;29.38;6.80;;;10.30;99.90;;;10.43;78.30;100227.41;4900445;29;20696;-69
2023/12/22 00:23:05;;;;;;;27.33;6.95;;;10.30;99.90;;;10.34;76.22;100238.97;4930708;29;20616;-69
2023/12/22 00:25:33;;;;;;;29.73;6.70;;;10.20;99.90;;;10.40;73.51;100259.16;4900155;29;20056;-70
2023/12/22 00:28:02;;;;;;;29.25;7.90;;;10.30;99.90;;;10.53;73.79;100266.91;4900025;29;20044;-68
2023/12/22 00:30:30;;;;;;;29.23;7.00;;;10.30;99.90;;;10.48;73.17;100242.31;4899996;29;20570;-70
2023/12/22 00:33:00;;;;;;;41.40;7.30;;;10.30;99.90;;;10.42;73.33;100247.69;4899963;29;20499;-69
2023/12/22 00:35:29;;;;;;;30.93;7.50;;;10.30;99.90;;;10.50;74.53;100237.00;4914512;29;20147;-68
2023/12/22 00:37:57;;;;;;;34.92;7.88;;;10.30;99.90;;;10.46;74.99;100245.88;4899859;29;20293;-70
2023/12/22 00:40:25;;;;;;;30.73;7.00;;;10.30;99.90;;;10.34;75.69;100254.84;4899797;29;20494;-70
2023/12/22 00:42:54;;;;;;;28.20;7.65;;;10.30;99.90;;;10.40;75.22;100243.31;4900372;29;20052;-71
2023/12/22 00:45:22;;;;;;;29.65;7.32;;;10.30;99.90;;;10.35;72.97;100261.03;4899812;29;20080;-71
2023/12/22 00:47:50;;;;;;;28.58;7.40;;;10.20;99.90;;;10.31;71.06;100243.44;4898661;29;20045;-70
2023/12/22 00:50:21;;;;;;;26.45;6.25;;;10.20;99.90;;;10.29;70.37;100261.97;4899604;29;20096;-70
2023/12/22 00:52:49;;;;;;;28.65;7.05;;;10.10;99.90;;;10.33;70.41;100252.22;4899689;29;20495;-70
2023/12/22 00:55:18;;;;;;;26.60;7.10;;;10.20;99.90;;;10.23;69.71;100267.34;4899683;29;20055;-70
2023/12/22 00:57:46;;;;;;;31.35;6.28;;;10.10;99.90;;;9.72;69.31;100189.56;4899947;29;20056;-70
2023/12/22 01:00:16;;;;;;;27.70;6.60;;;10.10;99.90;;;10.32;70.04;100292.75;4898505;29;20057;-70
2023/12/22 01:02:44;;;;;;;32.80;7.00;;;10.20;99.90;;;9.58;71.44;100153.66;4899501;29;20112;-70
2023/12/22 01:05:13;;;;;;;29.52;7.18;;;10.10;99.90;;;10.24;70.43;100289.38;4899484;29;20627;-71
2023/12/22 01:07:43;;;;;;;28.95;6.75;;;10.10;99.90;;;10.33;70.66;100302.44;4899280;29;20059;-70
2023/12/22 01:10:11;;;;;;;28.40;6.35;;;10.20;99.90;;;10.35;71.52;100285.69;4899570;29;20048;-71
2023/12/22 01:12:40;;;;;;;36.42;7.72;;;10.20;99.90;;;10.35;73.60;100282.16;4899278;29;20483;-70
2023/12/22 01:15:09;;;;;;;37.58;7.88;;;10.20;99.90;;;10.39;74.25;100281.22;4899264;29;20041;-70
2023/12/22 01:17:37;;;;;;;33.15;8.05;;;10.20;99.90;;;10.38;73.68;100288.28;4899205;29;20044;-70
2023/12/22 01:20:07;;;;;;;28.20;6.93;;;10.20;99.90;;;10.18;71.42;100279.72;4899090;29;20061;-71
2023/12/22 01:22:38;;;;;;;29.13;7.43;;;10.10;99.90;;;10.20;69.80;100246.22;4899163;29;20056;-71
2023/12/22 01:25:10;;;;;;;31.13;7.30;;;10.00;99.90;;;10.17;68.81;100271.81;4899170;29;20045;-70
2023/12/22 01:27:38;;;;;;;29.25;6.72;;;10.00;99.90;;;9.71;68.07;100161.44;4899480;29;20053;-70
2023/12/22 01:30:09;;;;;;;25.02;6.57;;;10.00;99.90;;;10.19;68.58;100285.88;4899195;29;20044;-71
2023/12/22 01:32:37;;;;;;;28.50;7.25;;;10.00;99.90;;;10.32;69.05;100283.06;4898894;29;20048;-71
2023/12/22 01:35:09;;;;;;;36.30;8.20;;;10.10;99.90;;;10.30;70.16;100289.28;4898931;29;20499;-70
2023/12/22 01:37:38;;;;;;;28.27;7.32;;;10.20;99.90;;;10.29;71.61;100261.97;4929355;29;20151;-70
2023/12/22 01:40:10;;;;;;;36.08;7.90;;;10.10;99.90;;;10.20;72.76;100292.94;4898861;29;20052;-71
2023/12/22 01:42:39;;;;;;;38.17;8.63;;;10.10;99.90;;;10.30;73.57;100291.94;4898873;29;20131;-70
2023/12/22 01:45:10;;;;;;;33.67;8.52;;;10.10;99.90;;;10.31;74.04;100286.63;4929217;29;20079;-71
2023/12/22 01:47:39;;;;;;;50.42;9.18;;;10.20;99.90;;;10.36;75.38;100299.75;4898658;29;20052;-70
2023/12/22 01:50:11;;;;;;;39.92;9.13;;;10.20;99.90;;;10.48;77.85;100304.88;4897468;29;20087;-71
2023/12/22 01:52:42;;;;;;;43.47;8.65;;;10.30;99.90;;;10.34;81.09;100315.66;4897879;29;20103;-70
2023/12/22 01:55:13;;;;;;;32.63;8.20;;;10.20;99.90;;;10.12;83.52;100305.34;4898586;29;20411;-70
2023/12/22 01:57:42;;;;;;;33.35;8.40;;;10.10;99.90;;;10.18;83.55;100311.44;4898290;29;20048;-70
2023/12/22 02:00:13;;;;;;;37.53;7.95;;;10.00;99.90;;;10.16;82.40;100296.50;4898006;29;20048;-72
2023/12/22 02:02:43;;;;;;;22.38;6.40;;;10.00;99.90;;;10.00;81.21;100290.50;4898072;29;20054;-72
2023/12/22 02:05:12;;;;;;;29.10;7.60;;;9.90;99.90;;;10.05;81.38;100301.88;4897275;29;20060;-71
2023/12/22 02:07:43;;;;;;;30.90;6.95;;;9.90;99.90;;;10.08;79.60;100311.53;4895779;29;20307;-70
2023/12/22 02:10:12;;;;;;;;;;;9.90;99.90;;;10.18;79.46;100322.00;4895803;29;20406;-71
2023/12/22 02:12:41;;;;;;;26.02;6.90;;;10.00;99.90;;;10.14;78.45;100324.72;4894360;29;19946;-72
2023/12/22 02:15:10;;;;;;;29.27;5.78;;;10.00;99.90;;;10.02;76.68;100301.91;4895685;29;20052;-72
2023/12/22 02:17:46;;;;;;;24.95;6.22;;;10.00;99.90;;;10.17;77.03;100314.09;4895632;29;20048;-72
2023/12/22 02:20:16;;;;;;;26.90;7.57;;;10.00;99.90;;;10.19;77.23;100299.97;4895595;29;20503;-71
2023/12/22 02:22:46;;;;;;;28.10;6.72;;;10.10;99.90;;;10.30;78.13;100310.44;4895531;29;20053;-70
2023/12/22 02:25:14;;;;;;;26.15;6.93;;;10.20;99.90;;;10.32;78.94;100316.53;4895663;29;20056;-70
2023/12/22 02:27:48;;;;;;;25.00;6.68;;;10.20;99.90;;;10.38;79.44;100327.03;4895520;29;20046;-70
2023/12/22 02:30:26;;;;;;;29.02;7.53;;;10.20;99.90;;;10.38;80.04;100340.25;4895379;29;20068;-71
2023/12/22 02:33:00;;;;;;;40.13;7.03;;;10.20;99.90;;;10.43;80.40;100318.16;4895428;29;20055;-70
2023/12/22 02:35:31;;;;;;;28.35;6.35;;;10.30;99.90;;;10.41;80.34;100321.75;4895364;29;20602;-71
2023/12/22 02:38:03;;;;;;;27.00;6.93;;;10.20;99.90;;;10.35;78.82;100316.53;4895806;29;20048;-72
2023/12/22 02:40:33;;;;;;;24.48;6.20;;;10.20;99.90;;;9.61;77.01;100187.94;4895494;29;20040;-70
2023/12/22 02:43:03;;;;;;;22.73;6.63;;;10.20;99.90;;;10.36;75.95;100316.50;4895314;29;20051;-71
2023/12/22 02:45:32;;;;;;;28.98;6.68;;;10.20;99.90;;;10.38;75.85;100306.78;4895431;29;20096;-70
2023/12/22 02:48:00;;;;;;;22.45;6.32;;;10.20;99.90;;;10.37;76.31;100309.44;4895278;29;20092;-71
2023/12/22 02:50:29;;;;;;;35.40;7.18;;;10.20;99.90;;;10.39;77.20;100326.16;4895373;29;20076;-71
2023/12/22 02:52:57;;;;;;;22.00;7.40;;;10.20;99.90;;;10.44;77.74;100324.34;4895120;29;20573;-71
2023/12/22 02:55:27;;;;;;;33.35;7.35;;;10.30;99.90;;;10.50;77.59;100309.28;4895415;29;20068;-70
2023/12/22 02:57:56;;;;;;;25.30;6.70;;;10.30;99.90;;;10.48;77.55;100296.97;4895282;29;20044;-70
2023/12/22 03:00:24;;;;;;;27.38;6.80;;;10.30;99.90;;;10.48;77.12;100315.47;4894955;29;20467;-71
2023/12/22 03:02:52;;;;;;;27.35;6.72;;;10.30;99.90;;;10.51;77.09;100316.28;4895245;29;20104;-70
2023/12/22 03:05:21;;;;;;;28.13;7.07;;;10.30;99.90;;;10.49;76.98;100311.94;4909873;29;20126;-70
2023/12/22 03:07:49;;;;;;;31.50;6.43;;;10.30;99.90;;;10.40;77.48;100294.41;4895319;29;20049;-70
2023/12/22 03:10:18;;;;;;;26.63;7.10;;;10.30;99.90;;;10.51;76.63;100332.16;4895070;29;20051;-71
2023/12/22 03:12:48;;;;;;;32.55;7.57;;;10.40;99.90;;;10.49;76.67;100318.09;4895042;29;20065;-71
2023/12/22 03:15:17;;;;;;;24.58;6.53;;;10.30;99.90;;;10.31;75.96;100286.63;4925691;29;20092;-70
2023/12/22 03:17:45;;;;;;;24.92;7.18;;;10.30;99.90;;;10.43;75.28;100304.94;4895118;29;20053;-70
2023/12/22 03:20:14;;;;;;;27.58;6.88;;;10.30;99.90;;;10.45;74.62;100270.56;4895160;29;20132;-71
2023/12/22 03:22:42;;;;;;;38.42;8.05;;;10.30;99.90;;;10.36;73.07;100305.03;4896535;29;20102;-70
2023/12/22 03:25:11;;;;;;;23.15;6.63;;;10.20;99.90;;;10.32;71.28;100308.63;4898900;29;20507;-71
2023/12/22 03:27:40;;;;;;;29.00;7.40;;;10.20;99.90;;;10.42;71.19;100315.53;4899105;29;20052;-71
2023/12/22 03:30:11;;;;;;;23.52;7.15;;;10.20;99.90;;;10.43;70.41;100298.81;4898770;29;20060;-70
2023/12/22 03:32:39;;;;;;;25.15;7.00;;;10.30;99.90;;;10.44;71.11;100309.34;4898953;29;20514;-72
2023/12/22 03:35:08;;;;;;;31.48;6.72;;;10.30;99.90;;;10.48;71.96;100259.94;4913232;29;20049;-71
2023/12/22 03:37:37;;;;;;;32.50;7.70;;;10.30;99.90;;;9.78;73.35;100176.28;4898717;29;20578;-71
2023/12/22 03:40:07;;;;;;;18.80;6.38;;;10.30;99.90;;;10.60;73.87;100299.44;4898584;29;20044;-70
2023/12/22 03:42:35;;;;;;;29.15;7.15;;;10.40;99.90;;;10.54;75.29;100304.81;4913096;29;20052;-70
2023/12/22 03:45:05;;;;;;;31.20;7.05;;;10.40;99.90;;;9.89;76.68;100197.28;4898519;29;20056;-71
2023/12/22 03:47:34;;;;;;;27.92;7.07;;;10.40;99.90;;;10.58;78.30;100311.81;4898405;29;20048;-70
2023/12/22 03:50:03;;;;;;;21.95;5.80;;;10.40;99.90;;;10.57;77.86;100310.94;4898462;29;20495;-70
2023/12/22 03:52:32;;;;;;;24.42;6.55;;;10.40;99.90;;;10.55;77.42;100317.16;4898234;29;20085;-72
2023/12/22 03:55:00;;;;;;;23.98;6.47;;;10.40;99.90;;;10.51;77.97;100313.66;4898299;29;20214;-70
2023/12/22 03:57:28;;;;;;;21.38;5.95;;;10.40;99.90;;;10.70;78.31;100332.81;4898615;29;20136;-71
2023/12/22 03:59:57;;;;;;;29.30;6.60;;;10.50;99.90;;;10.68;78.96;100324.03;4898755;29;20513;-71
2023/12/22 04:02:25;;;;;;;24.40;5.97;;;10.50;99.90;;;10.62;81.22;100326.75;4898030;29;20051;-71
2023/12/22 04:04:55;;;;;;;24.60;6.55;;;10.50;99.90;;;10.57;81.50;100310.03;4898330;29;20044;-71
2023/12/22 04:07:24;;;;;;;27.92;6.57;;;10.40;99.90;;;10.60;80.73;100312.66;4898071;29;20044;-71
2023/12/22 04:09:52;;;;;;;25.40;6.32;;;10.40;99.90;;;10.53;80.15;100322.44;4898153;29;20055;-71
2023/12/22 04:12:20;;;;;;;20.08;6.38;;;10.40;99.90;;;10.64;80.65;100322.31;4897553;29;20083;-72
2023/12/22 04:14:49;;;;;;;25.50;5.93;;;10.40;99.90;;;10.78;82.00;100310.63;4896787;29;20155;-71
2023/12/22 04:17:17;;;;;;;27.52;7.13;;;10.50;99.90;;;10.67;83.33;100323.13;4896947;29;20131;-71
2023/12/22 04:19:46;;;;;;;29.80;6.80;;;10.50;99.90;;;10.62;84.57;100324.97;4895277;29;20052;-70
2023/12/22 04:22:16;;;;;;;25.67;6.53;;;10.40;99.90;;;10.57;86.27;100317.97;4896587;29;20588;-72
2023/12/22 04:24:44;;;;;;;28.80;7.40;;;10.40;99.90;;;10.53;88.11;100318.94;4896671;29;20048;-71
2023/12/22 04:27:12;;;;;;;30.63;7.28;;;10.40;99.90;;;10.58;89.04;100302.13;4896494;29;20293;-71
2023/12/22 04:29:41;;;;;;;30.45;6.90;;;10.40;99.90;;;9.83;90.01;100185.00;4896603;29;20408;-71
2023/12/22 04:32:09;;;;;;;37.80;7.90;;;10.40;99.90;;;10.60;90.38;100320.59;4896081;29;20048;-71
2023/12/22 04:34:38;;;;;;;35.10;7.68;;;10.40;99.90;;;10.56;91.88;100313.59;4910908;29;20195;-70
2023/12/22 04:37:06;;;;;;;35.92;8.48;;;10.40;99.90;;;10.68;91.85;100329.31;4896440;29;20051;-70
2023/12/22 04:39:36;;;;;;;33.38;7.50;;;10.50;99.90;;;10.59;91.69;100319.72;4896449;29;20044;-70
2023/12/22 04:42:05;;;;;;;28.40;7.00;;;10.40;99.90;;;10.53;91.18;100305.72;4896541;29;20060;-70
2023/12/22 04:44:33;;;;;;;34.13;8.10;;;10.40;99.90;;;10.46;91.14;100298.75;4896234;29;20331;-70
2023/12/22 04:47:01;;;;;;;33.70;7.90;;;10.40;99.90;;;10.58;90.88;100301.22;4896577;29;20053;-70
2023/12/22 04:49:30;;;;;;;27.58;7.45;;;10.40;99.90;;;10.54;90.44;100294.25;4896095;29;20068;-71
2023/12/22 04:51:58;;;;;;;33.28;7.93;;;10.40;99.90;;;10.52;90.73;100314.53;4896212;29;20056;-70
2023/12/22 04:54:30;;;;;;;33.40;8.48;;;10.40;99.90;;;10.54;90.69;100311.00;4896145;29;20152;-70
2023/12/22 04:56:59;;;;;;;31.02;7.60;;;10.40;99.90;;;10.53;90.28;100288.06;4896118;29;20143;-70
2023/12/22 04:59:28;;;;;;;40.17;8.73;;;10.40;99.90;;;10.59;90.42;100316.19;4896370;29;20049;-70
2023/12/22 05:01:56;;;;;;;29.77;7.70;;;10.40;99.90;;;9.92;90.65;100199.88;4896489;29;20383;-71
2023/12/22 05:04:25;;;;;;;35.85;7.95;;;10.50;99.90;;;10.74;90.75;100318.66;4910516;29;20422;-70
2023/12/22 05:06:54;;;;;;;36.03;9.02;;;10.60;99.90;;;10.75;91.04;100315.09;4896235;29;20053;-71
2023/12/22 05:09:24;;;;;;;42.33;9.70;;;10.60;99.90;;;10.69;92.31;100307.25;4896009;29;20064;-70
2023/12/22 05:11:53;;;;;;;;;;;10.50;99.90;;;10.73;93.16;100328.34;4859168;29;1093690;-70
2023/12/22 05:14:22;;;;;;;50.03;11.80;;;10.50;99.90;;;10.56;93.53;100289.81;4896907;29;19923;-70
2023/12/22 05:16:54;;;;;;;54.73;11.20;;;10.50;99.90;;;10.68;93.58;100329.31;4896851;29;20097;-71
2023/12/22 05:19:23;;;;;;;53.63;10.95;;;10.50;99.90;;;10.68;94.14;100314.28;4896808;29;20751;-70
2023/12/22 05:21:55;;;;;;;47.90;11.43;;;10.50;99.90;;;10.72;92.91;100309.88;4896835;29;20045;-71
2023/12/22 05:24:24;;;;;;;47.00;11.00;;;10.50;99.90;;;9.93;92.99;100167.28;4896610;29;20506;-71
2023/12/22 05:26:53;;;;;;;47.80;10.25;;;10.60;99.90;;;10.69;92.80;100305.47;4896687;29;20439;-70
2023/12/22 05:29:23;;;;;;;51.35;9.98;;;10.60;99.90;;;10.74;93.17;100303.63;4910984;29;20057;-71
2023/12/22 05:31:51;;;;;;;48.63;11.67;;;10.60;99.90;;;10.70;92.79;100303.72;4896498;29;20131;-71
2023/12/22 05:34:20;;;;;;;48.03;11.45;;;10.60;99.90;;;10.83;92.80;100319.41;4896466;29;20463;-70
2023/12/22 05:36:48;;;;;;;43.35;10.38;;;10.60;99.90;;;10.77;92.99;100308.91;4896353;29;20601;-72
2023/12/22 05:39:17;;;;;;;62.42;11.90;;;10.70;99.90;;;10.84;93.39;100314.94;4896497;29;20045;-71
2023/12/22 05:41:45;;;;;;;55.22;12.98;;;10.70;99.90;;;10.79;93.76;100303.56;4896438;29;20518;-70
2023/12/22 05:44:13;;;;;;;56.20;11.40;;;10.60;99.90;;;10.70;94.05;100301.06;4895796;29;20060;-71
2023/12/22 05:46:43;;;;;;;61.92;12.52;;;10.60;99.90;;;10.83;93.90;100297.34;4896325;29;20119;-70
2023/12/22 05:49:12;;;;;;;59.25;12.30;;;10.60;99.90;;;10.85;93.16;100298.19;4896266;29;20049;-71
2023/12/22 05:51:41;;;;;;;49.13;10.85;;;10.70;99.90;;;10.87;92.60;100302.59;4896447;29;20329;-72
2023/12/22 05:54:11;;;;;;;60.63;13.23;;;10.70;99.90;;;10.82;92.43;100306.16;4896178;29;20045;-71
2023/12/22 05:56:40;;;;;;;62.93;12.13;;;10.70;99.90;;;10.85;92.15;100303.50;4896548;29;20049;-72
2023/12/22 05:59:08;;;;;;;64.00;12.55;;;10.70;99.90;;;10.89;91.56;100303.44;4896404;29;20280;-70
2023/12/22 06:01:37;;;;;;;63.90;13.02;;;10.70;99.90;;;10.87;91.64;100299.94;4896449;29;20136;-71
2023/12/22 06:04:07;;;;;;;59.83;11.90;;;10.70;99.90;;;10.93;91.58;100282.22;4926178;29;20525;-70
2023/12/22 06:06:38;;;;;;;55.25;12.65;;;10.70;99.90;;;10.97;91.10;100308.63;4896147;29;20056;-71
2023/12/22 06:09:06;;;;;;;63.25;13.45;;;10.80;99.90;;;10.89;91.77;100316.66;4895907;29;20136;-72
2023/12/22 06:11:35;;;;;;;60.65;12.40;;;10.80;99.90;;;10.87;92.49;100328.16;4895867;29;20045;-71
2023/12/22 06:14:03;;;;;;;66.40;12.73;;;10.70;99.90;;;10.85;92.66;100301.72;4895717;29;20676;-71
2023/12/22 06:16:31;;;;;;;61.13;13.52;;;10.70;99.90;;;10.87;92.98;100313.16;4895716;29;20183;-70
2023/12/22 06:19:00;;;;;;;52.50;11.88;;;10.70;99.90;;;10.89;92.53;100302.56;4896004;29;20059;-71
2023/12/22 06:21:30;;;;;;;56.95;11.80;;;10.70;99.90;;;10.89;92.09;100307.84;4895706;29;20045;-71
2023/12/22 06:23:58;;;;;;;56.28;12.88;;;10.70;99.90;;;10.96;91.90;100303.31;4896188;29;20044;-71
2023/12/22 06:26:27;;;;;;;61.13;12.85;;;10.80;99.90;;;10.98;91.71;100310.34;4894583;29;20050;-71
2023/12/22 06:28:55;;;;;;;53.15;10.98;;;10.80;99.90;;;10.95;91.39;100281.31;4895592;29;20044;-71
2023/12/22 06:31:24;;;;;;;61.20;12.02;;;10.90;99.90;;;11.09;90.99;100286.38;4895511;29;20425;-71
2023/12/22 06:33:53;;;;;;;54.92;11.30;;;10.90;99.90;;;10.95;91.10;100305.13;4895289;29;20131;-71
2023/12/22 06:36:22;;;;;;;53.13;10.80;;;10.80;99.90;;;11.04;90.89;100301.44;4895445;29;20510;-71
2023/12/22 06:38:53;;;;;;;48.03;11.48;;;10.90;99.90;;;11.09;91.01;100303.09;4895280;29;20049;-72
2023/12/22 06:41:22;;;;;;;;;;;10.90;99.90;;;11.08;91.16;100301.38;4895714;29;20048;-71
2023/12/22 06:43:56;;;;;;;54.72;12.65;;;10.90;99.90;;;10.95;91.08;100294.53;4895428;29;19924;-70
2023/12/22 06:46:26;;;;;;;55.83;10.93;;;10.90;99.90;;;11.09;91.26;100326.06;4895235;29;20092;-71
2023/12/22 06:48:56;;;;;;;54.13;10.05;;;10.90;99.90;;;11.03;91.58;100316.47;4895253;29;20056;-71
2023/12/22 06:51:27;;;;;;;60.38;12.30;;;10.90;99.90;;;10.99;91.89;100283.00;4894035;29;20067;-71
2023/12/22 06:53:59;;;;;;;48.38;10.95;;;10.90;99.90;;;11.12;92.00;100302.19;4895342;29;20443;-71
2023/12/22 06:56:35;;;;;;;47.10;10.10;;;10.90;99.90;;;11.11;92.45;100293.38;4895033;29;20049;-70
2023/12/22 06:59:04;;;;;;;49.55;10.73;;;10.90;99.90;;;11.07;92.85;100293.47;4895209;29;20048;-71
2023/12/22 07:01:34;;;;;;;48.40;10.73;;;10.90;99.90;;;11.13;92.90;100280.97;4895059;29;20475;-71
2023/12/22 07:04:06;;;;;;;50.35;10.32;;;11.00;99.90;;;11.20;92.92;100287.94;4895255;29;20255;-71
2023/12/22 07:06:35;;;;;;;47.97;9.70;;;11.00;99.90;;;11.21;93.45;100289.69;4895260;29;20064;-71
2023/12/22 07:09:32;;;;;;;44.53;11.23;;;11.00;99.90;;;11.20;93.40;100295.00;4895017;29;20055;-71
2023/12/22 07:12:01;;;;;;;36.40;8.45;;;11.00;99.90;;;11.15;93.58;100297.72;4894828;29;20615;-71
2023/12/22 07:14:29;;;;;;;50.78;10.48;;;11.00;99.90;;;10.92;93.70;100272.53;4894803;29;20566;-73
2023/12/22 07:17:00;;;;;;;45.10;10.65;;;11.00;99.90;;;11.22;94.13;100303.81;4894849;29;20399;-72
2023/12/22 07:19:28;;;;;;;;;;;11.00;99.90;;;10.77;94.70;100261.28;4895407;29;20051;-73
2023/12/22 07:21:57;;;;;;;43.50;9.60;;;10.90;99.90;;;11.12;95.20;100318.94;4895444;29;19923;-73
2023/12/22 07:24:25;;;;;;;38.58;9.55;;;10.90;99.90;;;11.14;95.15;100309.22;4894914;29;20076;-71
2023/12/22 07:26:56;;;;;;;34.97;9.13;;;11.00;99.90;;;11.23;95.51;100308.19;4894806;29;20049;-70
2023/12/22 07:29:25;;;;;;;38.70;8.68;;;11.00;99.90;;;11.14;95.93;100322.44;4894844;29;20063;-70
2023/12/22 07:31:53;;;;;;;33.92;8.75;;;11.00;99.90;;;11.15;96.59;100297.72;4894951;29;20052;-68
2023/12/22 07:34:22;;;;;;;44.53;9.00;;;11.00;99.90;;;11.23;96.80;100309.06;4894687;29;20136;-74
2023/12/22 07:36:53;;;;;;;31.25;9.50;;;11.10;99.90;;;11.20;96.84;100302.94;4895019;29;20064;-73
2023/12/22 07:39:33;;;;;;;45.33;9.95;;;11.00;99.90;;;11.22;97.56;100299.38;4894684;29;20064;-71
2023/12/22 07:42:06;;;;;;;37.60;9.20;;;11.00;99.90;;;11.34;97.56;100299.16;4895143;29;20052;-72
2023/12/22 07:44:35;;;;;;;39.83;8.57;;;11.10;99.90;;;11.26;98.14;100282.56;4894777;29;20502;-69
2023/12/22 07:47:04;;;;;;;38.63;8.02;;;11.10;99.90;;;11.25;99.00;100301.97;4894823;29;20041;-70
2023/12/22 07:49:33;;;;;;;44.47;9.45;;;11.10;99.90;;;11.25;99.51;100296.69;4894722;29;20072;-70
2023/12/22 07:52:01;;;;;;;26.33;7.47;;;11.10;99.90;;;11.26;99.71;100289.63;4894644;29;20045;-72
2023/12/22 07:54:31;;;;;;;29.23;8.20;;;11.10;99.90;;;11.25;100.00;100301.97;4894883;29;20148;-70
2023/12/22 07:57:00;;;;;;;31.88;7.93;;;11.10;99.90;;;11.30;100.00;100296.63;4894636;29;20455;-71
2023/12/22 07:59:30;;;;;;;28.00;7.30;;;11.10;99.90;;;11.25;100.00;100295.78;4895056;29;20059;-73
2023/12/22 08:02:00;;;;;;;28.52;7.38;;;11.10;99.90;;;11.30;100.00;100321.31;4894812;29;20041;-75
2023/12/22 08:04:29;;;;;;;24.20;6.43;;;11.10;99.90;;;11.29;100.00;100302.78;4894506;29;20045;-74
2023/12/22 08:06:57;;;;;;;33.15;7.13;;;11.10;99.90;;;11.26;100.00;100293.16;4894880;29;20048;-76
2023/12/22 08:09:26;;;;;;;29.80;7.15;;;11.10;99.90;;;11.30;100.00;100292.19;4897668;29;20057;-74
2023/12/22 08:11:56;;;;;;;22.30;6.72;;;11.10;99.90;;;11.35;100.00;100282.38;4897925;29;20041;-73
2023/12/22 08:14:25;;;;;;;20.77;6.65;;;11.20;99.90;;;11.36;100.00;100289.41;4897859;29;20048;-73
2023/12/22 08:16:55;;;;;;;27.05;7.07;;;11.20;99.90;;;11.33;100.00;100278.00;4897935;29;20049;-72
2023/12/22 08:19:24;;;;;;;26.13;6.28;;;11.10;99.90;;;11.34;100.00;100285.94;4897918;29;20055;-73
2023/12/22 08:21:56;;;;;;;20.17;5.35;;;11.10;99.90;;;11.39;100.00;100281.44;4898227;29;20045;-72
2023/12/22 08:24:26;;;;;;;25.65;6.18;;;11.20;99.90;;;11.44;100.00;100287.53;4912523;29;20059;-70
2023/12/22 08:26:54;;;;;;;22.30;5.28;;;11.20;99.90;;;11.31;100.00;100286.00;4897824;29;20067;-72
2023/12/22 08:29:23;;;;;;;24.58;5.97;;;11.20;99.90;;;11.38;100.00;100292.91;4912289;29;20064;-71
2023/12/22 08:31:52;;;;;;;20.48;5.68;;;11.20;99.90;;;11.35;100.00;100285.03;4897637;29;20060;-73
2023/12/22 08:34:21;;;;;;;20.00;5.35;;;11.20;99.90;;;11.29;100.00;100287.78;4897806;29;20040;-71
2023/12/22 08:36:50;;;;;;;20.75;5.57;;;11.20;99.90;;;11.32;100.00;100285.09;4897979;29;20056;-71
2023/12/22 08:39:18;;;;;;;23.10;5.40;;;11.10;99.90;;;11.27;100.00;100288.69;4897613;29;20075;-71
2023/12/22 08:41:48;;;;;;;25.42;5.97;;;11.10;99.90;;;11.25;100.00;100293.16;4897957;29;20079;-72
2023/12/22 08:44:16;;;;;;;24.10;6.00;;;11.10;99.90;;;11.24;100.00;100278.19;4897787;29;20470;-72
2023/12/22 08:46:45;;;;;;;22.55;5.72;;;11.10;99.90;;;11.16;100.00;100269.50;4897697;29;20072;-71
2023/12/22 08:49:13;;;;;;;19.38;5.47;;;11.00;99.90;;;11.30;100.00;100278.97;4897557;29;20045;-70
2023/12/22 08:51:43;;;;;;;21.60;5.55;;;11.10;99.90;;;11.27;100.00;100286.94;4897459;29;20049;-71
2023/12/22 08:54:12;;;;;;;19.90;5.93;;;11.10;99.90;;;11.30;100.00;100289.56;4897354;29;20056;-69
2023/12/22 08:56:41;;;;;;;22.80;5.57;;;11.10;99.90;;;11.23;100.00;100287.00;4897402;29;20414;-72
2023/12/22 08:59:10;;;;;;;25.58;6.20;;;11.10;99.90;;;11.39;100.00;100294.69;4927427;29;20087;-71
2023/12/22 09:01:40;;;;;;;21.42;5.38;;;11.20;99.90;;;11.35;100.00;100276.22;4897296;29;20056;-71
2023/12/22 09:04:12;;;;;;;16.60;5.10;;;11.20;99.90;;;11.31;100.00;100282.47;4897210;29;20041;-70
2023/12/22 09:06:40;;;;;;;20.63;5.18;;;11.20;99.90;;;11.38;100.00;100284.13;4897152;29;20052;-70
2023/12/22 09:09:10;;;;;;;17.73;4.88;;;11.20;99.90;;;11.38;100.00;100287.63;4897064;29;20052;-71
2023/12/22 09:11:38;;;;;;;16.17;5.18;;;11.20;99.90;;;11.39;100.00;100281.44;4897077;29;20329;-69
2023/12/22 09:14:09;;;;;;;15.60;5.57;;;11.20;99.90;;;11.40;100.00;100292.91;4897069;29;20187;-71
2023/12/22 09:16:38;;;;;;;19.75;5.57;;;11.20;99.90;;;11.46;100.00;100277.78;4897083;29;20048;-70
2023/12/22 09:19:07;;;;;;;20.60;5.70;;;11.30;99.90;;;11.58;100.00;100284.63;4895997;29;20131;-70
2023/12/22 09:21:36;;;;;;;23.10;5.90;;;11.30;99.90;;;11.52;100.00;100279.44;4896845;29;20144;-71
2023/12/22 09:24:06;;;;;;;19.25;5.88;;;11.40;99.90;;;11.56;100.00;100287.31;4896843;29;20127;-71
2023/12/22 09:26:36;;;;;;;18.35;5.32;;;11.40;99.90;;;11.54;100.00;100277.63;4896719;29;20044;-72
2023/12/22 09:29:04;;;;;;;19.15;5.30;;;11.40;99.90;;;11.58;100.00;100280.22;4895517;29;20420;-71
2023/12/22 09:31:33;;;;;;;24.17;6.10;;;11.40;99.90;;;11.36;100.00;100241.75;4896530;29;20502;-70
2023/12/22 09:34:02;;;;;;;20.60;5.75;;;11.30;99.90;;;11.48;100.00;100267.16;4896578;29;20084;-71
2023/12/22 09:36:31;;;;;;;19.13;5.72;;;11.30;99.90;;;11.53;100.00;100290.03;4896373;29;20047;-71
2023/12/22 09:38:59;;;;;;;19.13;5.40;;;11.30;99.90;;;11.50;100.00;100281.25;4896478;29;20040;-72
2023/12/22 09:41:28;;;;;;;18.40;5.13;;;11.30;99.90;;;11.58;100.00;100285.50;4896177;29;20104;-71
2023/12/22 09:44:01;;;;;;;18.35;5.85;;;11.40;99.90;;;11.43;100.00;100259.31;4896153;29;20087;-72
2023/12/22 09:46:31;;;;;;;20.15;5.20;;;11.40;99.90;;;11.33;100.00;100267.41;4896177;29;20048;-71
2023/12/22 09:49:01;;;;;;;17.42;5.57;;;11.40;99.90;;;11.57;100.00;100294.38;4896044;29;20076;-71
2023/12/22 09:51:31;;;;;;;16.25;5.32;;;11.40;99.90;;;11.55;100.00;100292.66;4895998;29;20047;-70
2023/12/22 09:54:00;;;;;;;14.23;5.17;;;11.40;99.90;;;11.44;100.00;100276.06;4895919;29;20056;-71
2023/12/22 09:56:33;;;;;;;17.40;5.55;;;11.30;99.90;;;11.54;100.00;100302.34;4896580;29;20309;-70
2023/12/22 09:59:04;;;;;;;18.00;5.50;;;11.40;99.90;;;11.57;100.00;100301.44;4897890;29;20055;-70
2023/12/22 10:01:33;;;;;;;19.77;4.93;;;11.40;99.90;;;11.61;100.00;100290.75;4897768;29;20385;-70
2023/12/22 10:04:01;;;;;;;16.50;4.75;;;11.40;99.90;;;11.65;100.00;100297.78;4897650;29;20051;-70
2023/12/22 10:06:30;;;;;;;22.08;5.70;;;11.50;99.90;;;11.65;100.00;100307.47;4897609;29;20051;-70
2023/12/22 10:08:59;;;;;;;17.25;5.28;;;11.50;99.90;;;11.70;100.00;100306.53;4897767;29;20426;-70
2023/12/22 10:11:29;;;;;;;19.35;5.38;;;11.50;99.90;;;11.74;100.00;100296.75;4896352;29;20092;-71
2023/12/22 10:13:57;;;;;;;20.00;5.38;;;11.60;99.90;;;11.73;100.00;100287.91;4895910;29;20386;-71